M/V Vinh_hung — XVFL — position and weather

sailwx.info

Track history (hours):
 
Tides and Currents Weather Stations Pressure Air Temp Water Temp Dewpoint Dewpoint Depression Visibility Wind Speed Wind Dir Waves Ship Positions

M/V Vinh_hung

Last reported at 2014-Nov-04 21:13 UTC. Time now 2014-Nov-27 17:10 UTC.
Position N 01°15' E 104°05'.
Warning: this ship's position is 22 days out of date.

Length 103 m; draft 4.2 m.

Type: Cargo ship. MMSI: 574206000.

Date/timePositionNaut miles runAvg speedWind from/ knotsBaromVisibWave heightAir tempDewpointWater temp
2014-Nov-04 21:13N 01°15' E 104°05'710.5
2014-Nov-04 20:33N 01°14' E 103°58'6 5.2
2014-Nov-04 19:26N 01°15' E 103°53'0 0.0
2014-Nov-04 18:32N 01°15' E 103°53'0 0.1
2014-Nov-04 17:26N 01°15' E 103°53'0 0.1
2014-Nov-04 16:26N 01°15' E 103°53'0 0.0
2014-Nov-04 15:26N 01°15' E 103°53'0 0.0
2014-Nov-04 14:32N 01°15' E 103°53'0 0.0
2014-Nov-04 13:26N 01°15' E 103°53'0 0.0
2014-Nov-04 12:32N 01°15' E 103°53'0 0.0
2014-Nov-04 11:32N 01°15' E 103°53'0 0.0
2014-Nov-04 10:32N 01°15' E 103°53'0 0.0
2014-Nov-04 09:32N 01°15' E 103°53'0 0.0
2014-Nov-04 08:32N 01°15' E 103°53'0 0.0
2014-Nov-04 07:33N 01°15' E 103°53'0 0.1
2014-Nov-04 06:33N 01°15' E 103°53'0 0.1
2014-Nov-04 05:33N 01°15' E 103°53'0 0.1
2014-Nov-04 04:33N 01°15' E 103°53'2 2.0
2014-Nov-04 03:33N 01°13' E 103°53'  
2014-Oct-30 10:26N 01°11' E 103°49'7 8.3
2014-Oct-30 09:32N 01°14' E 103°56'9 9.1
2014-Oct-30 08:33N 01°17' E 104°05'  
2014-Oct-27 23:21S 03°50' E 111°05'1010.4
2014-Oct-27 22:25S 03°52' E 111°14'1210.4
2014-Oct-27 21:15S 03°54' E 111°26'910.5
2014-Oct-27 20:25S 03°55' E 111°35'910.5
2014-Oct-27 19:33S 03°57' E 111°44'11410.3
2014-Oct-27 08:26S 04°16' E 113°37'9 9.9
2014-Oct-27 07:33S 04°18' E 113°46'100 9.8
2014-Oct-26 21:22S 04°16' E 115°26'8 9.6
2014-Oct-26 20:33S 04°15' E 115°33'  
Track history (hours):
 
Tides and Currents Weather Stations Pressure Air Temp Water Temp Dewpoint Dewpoint Depression Visibility Wind Speed Wind Dir Waves Ship Positions

M/V Vinh_hung

Last reported at 2014-Nov-04 21:13 UTC. Time now 2014-Nov-27 17:10 UTC.
Position N 01°15' E 104°05'.
Warning: this ship's position is 22 days out of date.

Length 103 m; draft 4.2 m.

Type: Cargo ship. MMSI: 574206000.

Date/timePositionNaut miles runAvg speedWind from/ knotsBaromVisibWave heightAir tempDewpointWater temp
2014-Nov-04 21:13N 01°15' E 104°05'710.5
2014-Nov-04 20:33N 01°14' E 103°58'6 5.2
2014-Nov-04 19:26N 01°15' E 103°53'0 0.0
2014-Nov-04 18:32N 01°15' E 103°53'0 0.1
2014-Nov-04 17:26N 01°15' E 103°53'0 0.1
2014-Nov-04 16:26N 01°15' E 103°53'0 0.0
2014-Nov-04 15:26N 01°15' E 103°53'0 0.0
2014-Nov-04 14:32N 01°15' E 103°53'0 0.0
2014-Nov-04 13:26N 01°15' E 103°53'0 0.0
2014-Nov-04 12:32N 01°15' E 103°53'0 0.0
2014-Nov-04 11:32N 01°15' E 103°53'0 0.0
2014-Nov-04 10:32N 01°15' E 103°53'0 0.0
2014-Nov-04 09:32N 01°15' E 103°53'0 0.0
2014-Nov-04 08:32N 01°15' E 103°53'0 0.0
2014-Nov-04 07:33N 01°15' E 103°53'0 0.1
2014-Nov-04 06:33N 01°15' E 103°53'0 0.1
2014-Nov-04 05:33N 01°15' E 103°53'0 0.1
2014-Nov-04 04:33N 01°15' E 103°53'2 2.0
2014-Nov-04 03:33N 01°13' E 103°53'  
2014-Oct-30 10:26N 01°11' E 103°49'7 8.3
2014-Oct-30 09:32N 01°14' E 103°56'9 9.1
2014-Oct-30 08:33N 01°17' E 104°05'  
2014-Oct-27 23:21S 03°50' E 111°05'1010.4
2014-Oct-27 22:25S 03°52' E 111°14'1210.4
2014-Oct-27 21:15S 03°54' E 111°26'910.5
2014-Oct-27 20:25S 03°55' E 111°35'910.5
2014-Oct-27 19:33S 03°57' E 111°44'11410.3
2014-Oct-27 08:26S 04°16' E 113°37'9 9.9
2014-Oct-27 07:33S 04°18' E 113°46'100 9.8
2014-Oct-26 21:22S 04°16' E 115°26'8 9.6
2014-Oct-26 20:33S 04°15' E 115°33'  

Dump ship's entire track history